createdAt,value
2023-02-05T00:01:49.082Z,100379.84
2023-02-05T00:04:15.471Z,100374.28
2023-02-05T00:06:41.784Z,100369.50
2023-02-05T00:09:08.095Z,100367.66
2023-02-05T00:11:34.415Z,100369.50
2023-02-05T00:14:00.826Z,100370.31
2023-02-05T00:16:27.155Z,100364.75
2023-02-05T00:18:53.534Z,100369.31
2023-02-05T00:21:20.208Z,100360.22
2023-02-05T00:23:46.707Z,100346.34
2023-02-05T00:26:15.677Z,100343.91
2023-02-05T00:28:42.016Z,100348.34
2023-02-05T00:31:09.168Z,100344.97
2023-02-05T00:33:35.560Z,100353.81
2023-02-05T00:36:01.940Z,100347.28
2023-02-05T00:38:28.247Z,100339.72
2023-02-05T00:40:54.802Z,100338.31
2023-02-05T00:43:21.112Z,100323.31
2023-02-05T00:45:47.523Z,100326.00
2023-02-05T00:48:13.850Z,100316.53
2023-02-05T00:50:40.738Z,100318.16
2023-02-05T00:53:07.061Z,100318.97
2023-02-05T00:55:33.739Z,100310.75
2023-02-05T00:58:01.197Z,100313.63
2023-02-05T01:00:27.945Z,100316.09
2023-02-05T01:02:55.027Z,100305.28
2023-02-05T01:05:21.350Z,100301.31
2023-02-05T01:07:47.676Z,100295.72
2023-02-05T01:10:14.004Z,100297.69
2023-02-05T01:12:40.316Z,100294.16
2023-02-05T01:15:06.845Z,100291.38
2023-02-05T01:17:33.171Z,100288.13
2023-02-05T01:19:59.495Z,100279.97
2023-02-05T01:22:25.810Z,100277.53
2023-02-05T01:24:52.132Z,100269.69
2023-02-05T01:27:18.516Z,100253.28
2023-02-05T01:29:45.054Z,100258.06
2023-02-05T01:32:11.368Z,100259.91
2023-02-05T01:34:37.722Z,100263.41
2023-02-05T01:37:04.297Z,100270.84
2023-02-05T01:39:30.624Z,100265.94
2023-02-05T01:41:56.936Z,100258.38
2023-02-05T01:44:26.253Z,100252.81
2023-02-05T01:46:52.952Z,100245.47
2023-02-05T01:49:23.745Z,100239.88
2023-02-05T01:51:50.176Z,100234.78
2023-02-05T01:54:16.503Z,100237.31
2023-02-05T01:56:43.702Z,100240.81
2023-02-05T01:59:16.475Z,100230.81
2023-02-05T02:01:42.821Z,100225.47
2023-02-05T02:04:09.416Z,100221.59
2023-02-05T02:06:35.760Z,100232.50
2023-02-05T02:09:02.360Z,100229.25
2023-02-05T02:11:29.179Z,100226.22
2023-02-05T02:13:55.939Z,100226.69
2023-02-05T02:16:22.328Z,100229.00
2023-02-05T02:18:48.675Z,100220.38
2023-02-05T02:21:33.592Z,100213.03
2023-02-05T02:24:18.544Z,100212.31
2023-02-05T02:27:08.138Z,100219.53
2023-02-05T02:29:39.219Z,100210.91
2023-02-05T02:32:20.651Z,100214.06
2023-02-05T02:34:51.182Z,100210.78
2023-02-05T02:37:25.012Z,100203.22
2023-02-05T02:39:55.299Z,100206.91
2023-02-05T02:42:23.360Z,100195.66
2023-02-05T02:44:54.069Z,100188.66
2023-02-05T02:47:20.984Z,100185.84
2023-02-05T02:49:54.307Z,100192.25
2023-02-05T02:52:20.820Z,100201.50
2023-02-05T02:54:47.370Z,100211.38
2023-02-05T02:57:13.688Z,100212.44
2023-02-05T02:59:40.003Z,100213.69
2023-02-05T03:02:06.414Z,100211.44
2023-02-05T03:04:39.398Z,100209.00
2023-02-05T03:07:06.651Z,100214.59
2023-02-05T03:09:51.774Z,100206.63
2023-02-05T03:12:18.255Z,100204.81
2023-02-05T03:14:44.585Z,100198.28
2023-02-05T03:17:18.419Z,100205.09
2023-02-05T03:19:45.380Z,100201.25
2023-02-05T03:22:11.929Z,100210.31
2023-02-05T03:24:38.260Z,100210.97
2023-02-05T03:27:04.656Z,100208.50
2023-02-05T03:29:32.261Z,100206.06
2023-02-05T03:32:21.138Z,100201.78
2023-02-05T03:34:53.584Z,100197.47
2023-02-05T03:37:22.112Z,100191.53
2023-02-05T03:39:58.512Z,100184.19
2023-02-05T03:42:43.513Z,100165.97
2023-02-05T03:45:20.844Z,100168.03
2023-02-05T03:47:49.839Z,100173.81
2023-02-05T03:50:16.068Z,100167.06
2023-02-05T03:52:43.807Z,100171.22
2023-02-05T03:55:20.262Z,100152.53
2023-02-05T03:57:49.764Z,100152.97
2023-02-05T04:00:16.082Z,100159.34
2023-02-05T04:02:42.656Z,100165.94
2023-02-05T04:05:08.976Z,100170.66
2023-02-05T04:07:35.539Z,100160.44
2023-02-05T04:10:01.851Z,100157.16
2023-02-05T04:12:28.227Z,100163.16
2023-02-05T04:14:54.602Z,100160.34
2023-02-05T04:17:20.940Z,100166.50
2023-02-05T04:19:47.243Z,100167.97
2023-02-05T04:22:13.581Z,100184.22
2023-02-05T04:24:39.915Z,100181.78
2023-02-05T04:27:06.783Z,100184.47
2023-02-05T04:29:33.122Z,100175.66
2023-02-05T04:31:59.460Z,100168.13
2023-02-05T04:34:25.775Z,100173.47
2023-02-05T04:36:52.095Z,100173.66
2023-02-05T04:39:18.426Z,100164.47
2023-02-05T04:41:44.761Z,100155.66
2023-02-05T04:44:11.072Z,100158.53
2023-02-05T04:46:37.422Z,100148.91
2023-02-05T04:49:03.727Z,100144.00
2023-02-05T04:51:30.051Z,100138.53
2023-02-05T04:53:56.384Z,100152.44
2023-02-05T04:56:22.778Z,100158.22
2023-02-05T04:58:49.097Z,100152.66
2023-02-05T05:01:16.198Z,100152.66
2023-02-05T05:03:42.561Z,100156.16
2023-02-05T05:06:08.871Z,100162.91
2023-02-05T05:08:35.192Z,100162.28
2023-02-05T05:11:06.245Z,100157.56
2023-02-05T05:13:33.431Z,100152.66
2023-02-05T05:15:59.781Z,100161.72
2023-02-05T05:18:26.122Z,100167.28
2023-02-05T05:20:52.437Z,100168.50
2023-02-05T05:23:18.769Z,100166.88
2023-02-05T05:25:45.633Z,100164.88
2023-02-05T05:28:12.005Z,100171.44
2023-02-05T05:30:41.609Z,100168.19
2023-02-05T05:33:07.954Z,100164.09
2023-02-05T05:35:34.734Z,100161.88
2023-02-05T05:38:01.219Z,100153.88
2023-02-05T05:40:46.071Z,100150.63
2023-02-05T05:43:31.532Z,100147.34
2023-02-05T05:45:57.903Z,100134.25
2023-02-05T05:48:24.257Z,100135.28
2023-02-05T05:50:50.576Z,100136.53
2023-02-05T05:53:16.971Z,100123.66
2023-02-05T05:55:43.270Z,100122.22
2023-02-05T05:58:09.779Z,100106.66
2023-02-05T06:00:36.408Z,100102.38
2023-02-05T06:03:02.752Z,100109.56
2023-02-05T06:05:29.072Z,100114.66
2023-02-05T06:07:55.398Z,100109.94
2023-02-05T06:10:21.780Z,100104.38
2023-02-05T06:12:48.146Z,100103.16
2023-02-05T06:15:14.465Z,100091.06
2023-02-05T06:17:40.822Z,100088.41
2023-02-05T06:20:07.181Z,100081.88
2023-02-05T06:22:33.522Z,100086.84
2023-02-05T06:24:59.835Z,100087.84
2023-02-05T06:27:26.191Z,100089.94
2023-02-05T06:29:52.502Z,100092.19
2023-02-05T06:32:18.893Z,100087.91
2023-02-05T06:34:45.479Z,100101.00
2023-02-05T06:37:11.807Z,100098.34
2023-02-05T06:39:38.116Z,100094.63
2023-02-05T06:42:04.464Z,100096.72
2023-02-05T06:44:30.794Z,100099.38
2023-02-05T06:46:57.129Z,100094.28
2023-02-05T06:49:23.427Z,100091.81
2023-02-05T06:51:49.754Z,100099.22
2023-02-05T06:54:16.062Z,100090.59
2023-02-05T06:56:42.382Z,100080.41
2023-02-05T06:59:08.698Z,100071.81
2023-02-05T07:01:35.299Z,100072.25
2023-02-05T07:04:01.641Z,100072.25
2023-02-05T07:06:28.965Z,100079.84
2023-02-05T07:08:55.269Z,100078.00
2023-02-05T07:11:21.747Z,100069.63
2023-02-05T07:13:48.072Z,100072.50
2023-02-05T07:16:14.541Z,100068.00
2023-02-05T07:18:40.895Z,100078.22
2023-02-05T07:21:08.118Z,100077.41
2023-02-05T07:23:34.448Z,100079.03
2023-02-05T07:26:10.775Z,100066.75
2023-02-05T07:28:37.099Z,100067.75
2023-02-05T07:31:05.314Z,100066.97
2023-02-05T07:33:31.692Z,100072.72
2023-02-05T07:35:58.011Z,100072.13
2023-02-05T07:38:25.087Z,100073.16
2023-02-05T07:40:51.406Z,100073.38
2023-02-05T07:43:17.725Z,100072.16
2023-02-05T07:45:44.034Z,100072.16
2023-02-05T07:48:10.359Z,100062.56
2023-02-05T07:50:36.736Z,100059.28
2023-02-05T07:53:03.081Z,100061.94
2023-02-05T07:55:29.407Z,100068.88
2023-02-05T07:57:55.787Z,100066.84
2023-02-05T08:00:22.160Z,100056.41
2023-02-05T08:02:48.565Z,100065.38
2023-02-05T08:05:14.877Z,100063.09
2023-02-05T08:07:41.225Z,100058.59
2023-02-05T08:10:07.631Z,100054.91
2023-02-05T08:12:34.095Z,100055.09
2023-02-05T08:15:00.795Z,100051.63
2023-02-05T08:17:27.148Z,100060.44
2023-02-05T08:19:53.460Z,100056.94
2023-02-05T08:22:19.794Z,100050.81
2023-02-05T08:24:46.102Z,100054.72
2023-02-05T08:27:12.403Z,100051.09
2023-02-05T08:29:38.724Z,100050.56
2023-02-05T08:32:05.024Z,100050.28
2023-02-05T08:34:31.342Z,100050.59
2023-02-05T08:36:57.763Z,100058.22
2023-02-05T08:39:25.996Z,100053.28
2023-02-05T08:41:52.371Z,100051.34
2023-02-05T08:44:18.686Z,100047.78
2023-02-05T08:46:50.150Z,100057.13
2023-02-05T08:49:16.995Z,100053.59
2023-02-05T08:51:43.370Z,100053.50
2023-02-05T08:54:13.038Z,100053.72
2023-02-05T08:56:40.117Z,100050.97
2023-02-05T08:59:06.482Z,100049.78
2023-02-05T09:01:33.342Z,100038.44
2023-02-05T09:03:59.938Z,100047.34
2023-02-05T09:06:26.573Z,100047.34
2023-02-05T09:08:52.905Z,100045.47
2023-02-05T09:11:22.809Z,100044.44
2023-02-05T09:13:49.314Z,100042.25
2023-02-05T09:16:15.705Z,100046.38
2023-02-05T09:18:42.216Z,100044.28
2023-02-05T09:21:08.793Z,100044.09
2023-02-05T09:23:35.123Z,100035.94
2023-02-05T09:26:01.491Z,100032.91
2023-02-05T09:28:27.820Z,100039.69
2023-02-05T09:30:54.196Z,100032.28
2023-02-05T09:33:20.563Z,100033.44
2023-02-05T09:35:46.900Z,100033.97
2023-02-05T09:38:13.685Z,100034.09
2023-02-05T09:41:00.027Z,100032.59
2023-02-05T09:43:44.743Z,100030.53
2023-02-05T09:46:12.494Z,100019.25
2023-02-05T09:49:09.184Z,100020.91
2023-02-05T09:51:36.412Z,100022.78
2023-02-05T09:54:10.287Z,100032.59
2023-02-05T09:56:38.610Z,100035.94
2023-02-05T09:59:06.375Z,100026.53
2023-02-05T10:01:51.430Z,100033.50
2023-02-05T10:04:17.897Z,100038.97
2023-02-05T10:07:05.794Z,100036.44
2023-02-05T10:09:44.515Z,100034.41
2023-02-05T10:12:23.315Z,100038.53
2023-02-05T10:15:04.155Z,100034.81
2023-02-05T10:17:43.348Z,100044.00
2023-02-05T10:20:15.503Z,100038.53
2023-02-05T10:23:01.737Z,100040.75
2023-02-05T10:25:48.369Z,100044.00
2023-02-05T10:28:33.505Z,100042.69
2023-02-05T10:31:10.069Z,100048.91
2023-02-05T10:34:01.264Z,100043.63
2023-02-05T10:36:27.651Z,100038.78
2023-02-05T10:38:57.228Z,100036.31
2023-02-05T10:41:28.279Z,100037.50
2023-02-05T10:44:13.686Z,100037.34
2023-02-05T10:46:40.052Z,100036.91
2023-02-05T10:49:13.600Z,100040.16
2023-02-05T10:51:40.493Z,100041.88
2023-02-05T10:54:12.440Z,100052.75
2023-02-05T10:56:38.756Z,100044.41
2023-02-05T10:59:07.103Z,100044.59
2023-02-05T11:01:41.455Z,100050.97
2023-02-05T11:04:10.276Z,100046.91
2023-02-05T11:06:37.979Z,100046.09
2023-02-05T11:09:05.570Z,100047.94
2023-02-05T11:11:31.916Z,100050.69
2023-02-05T11:14:01.625Z,100046.53
2023-02-05T11:16:35.193Z,100059.25
2023-02-05T11:19:01.571Z,100057.06
2023-02-05T11:21:46.700Z,100061.59
2023-02-05T11:24:22.029Z,100062.03
2023-02-05T11:26:49.407Z,100069.22
2023-02-05T11:29:18.922Z,100061.22
2023-02-05T11:31:45.323Z,100065.94
2023-02-05T11:34:13.459Z,100072.31
2023-02-05T11:36:46.804Z,100066.41
2023-02-05T11:39:35.877Z,100073.78
2023-02-05T11:42:31.689Z,100066.84
2023-02-05T11:44:59.016Z,100073.44
2023-02-05T11:47:29.074Z,100082.69
2023-02-05T11:49:55.456Z,100065.88
2023-02-05T11:52:26.174Z,100070.31
2023-02-05T11:54:52.499Z,100074.97
2023-02-05T11:57:19.624Z,100080.69
2023-02-05T11:59:55.148Z,100084.16
2023-02-05T12:02:30.817Z,100082.31
2023-02-05T12:05:03.685Z,100092.16
2023-02-05T12:07:31.423Z,100095.06
2023-02-05T12:09:59.741Z,100090.78
2023-02-05T12:12:35.257Z,100093.66
2023-02-05T12:15:04.516Z,100099.22
2023-02-05T12:17:41.444Z,100106.69
2023-02-05T12:20:15.983Z,100113.28
2023-02-05T12:22:50.215Z,100107.88
2023-02-05T12:25:27.545Z,100108.28
2023-02-05T12:28:05.905Z,100109.44
2023-02-05T12:30:35.285Z,100103.91
2023-02-05T12:33:04.626Z,100095.88
2023-02-05T12:35:42.816Z,100104.09
2023-02-05T12:38:21.064Z,100094.28
2023-02-05T12:41:23.199Z,100100.03
2023-02-05T12:43:49.827Z,100102.69
2023-02-05T12:46:16.159Z,100089.59
2023-02-05T12:49:01.165Z,100079.59
2023-02-05T12:51:32.062Z,100074.69
2023-02-05T12:54:17.174Z,100065.72
2023-02-05T12:56:52.830Z,100073.94
2023-02-05T12:59:19.082Z,100082.59
2023-02-05T13:01:53.458Z,100083.13
2023-02-05T13:04:25.193Z,100083.34
2023-02-05T13:06:52.967Z,100088.47
2023-02-05T13:09:20.228Z,100091.75
2023-02-05T13:11:48.505Z,100105.06
2023-02-05T13:14:19.963Z,100098.31
2023-02-05T13:16:50.131Z,100094.84
2023-02-05T13:19:19.582Z,100094.03
2023-02-05T13:22:15.302Z,100091.59
2023-02-05T13:25:09.817Z,100092.59
2023-02-05T13:28:01.485Z,100091.22
2023-02-05T13:30:32.370Z,100107.44
2023-02-05T13:32:59.118Z,100111.94
2023-02-05T13:35:25.700Z,100114.41
2023-02-05T13:37:52.740Z,100121.94
2023-02-05T13:40:21.801Z,100134.84
2023-02-05T13:43:03.436Z,100128.28
2023-02-05T13:45:48.489Z,100132.75
2023-02-05T13:48:14.770Z,100130.59
2023-02-05T13:51:05.262Z,100128.56
2023-02-05T13:53:58.052Z,100136.53
2023-02-05T13:56:30.541Z,100137.78
2023-02-05T13:59:10.344Z,100143.59
2023-02-05T14:01:40.132Z,100150.38
2023-02-05T14:04:18.751Z,100155.91
2023-02-05T14:06:46.767Z,100155.56
2023-02-05T14:09:21.218Z,100163.41
2023-02-05T14:11:55.676Z,100162.78
2023-02-05T14:14:23.358Z,100161.09
2023-02-05T14:16:51.483Z,100151.44
2023-02-05T14:19:22.576Z,100159.59
2023-02-05T14:21:49.690Z,100157.72
2023-02-05T14:24:34.864Z,100163.88
2023-02-05T14:27:01.185Z,100175.59
2023-02-05T14:29:43.636Z,100174.78
2023-02-05T14:32:13.175Z,100186.69
2023-02-05T14:34:39.420Z,100194.69
2023-02-05T14:37:05.966Z,100197.56
2023-02-05T14:39:33.626Z,100198.59
2023-02-05T14:42:00.871Z,100196.38
2023-02-05T14:44:28.377Z,100199.63
2023-02-05T14:47:02.448Z,100209.25
2023-02-05T14:49:30.257Z,100211.25
2023-02-05T14:52:00.173Z,100206.78
2023-02-05T14:54:28.230Z,100210.84
2023-02-05T14:57:07.594Z,100213.06
2023-02-05T14:59:48.792Z,100213.88
2023-02-05T15:02:33.946Z,100211.88
2023-02-05T15:05:00.299Z,100207.50
2023-02-05T15:07:26.612Z,100204.06
2023-02-05T15:10:00.331Z,100196.09
2023-02-05T15:12:30.155Z,100197.00
2023-02-05T15:14:56.903Z,100202.28
2023-02-05T15:17:29.213Z,100219.19
2023-02-05T15:19:56.398Z,100219.84
2023-02-05T15:22:26.419Z,100223.94
2023-02-05T15:24:53.629Z,100240.47
2023-02-05T15:27:21.538Z,100240.91
2023-02-05T15:29:48.527Z,100245.81
2023-02-05T15:32:18.491Z,100244.53
2023-02-05T15:34:53.663Z,100244.09
2023-02-05T15:37:21.370Z,100258.97
2023-02-05T15:39:54.817Z,100266.19
2023-02-05T15:42:28.346Z,100272.34
2023-02-05T15:44:54.654Z,100271.41
2023-02-05T15:47:21.766Z,100267.91
2023-02-05T15:49:49.682Z,100276.06
2023-02-05T15:52:20.303Z,100274.31
2023-02-05T15:54:46.630Z,100295.31
2023-02-05T15:57:18.032Z,100297.16
2023-02-05T15:59:44.353Z,100287.53
2023-02-05T16:02:14.940Z,100285.06
2023-02-05T16:04:41.279Z,100286.91
2023-02-05T16:07:24.230Z,100275.78
2023-02-05T16:09:52.913Z,100281.72
2023-02-05T16:12:20.160Z,100275.78
2023-02-05T16:14:47.896Z,100289.72
2023-02-05T16:17:16.336Z,100298.56
2023-02-05T16:19:42.583Z,100294.88
2023-02-05T16:22:14.903Z,100297.75
2023-02-05T16:24:41.280Z,100307.88
2023-02-05T16:27:15.148Z,100309.50
2023-02-05T16:29:49.826Z,100314.47
2023-02-05T16:32:27.932Z,100321.09
2023-02-05T16:34:56.307Z,100333.25
2023-02-05T16:37:23.793Z,100341.84
2023-02-05T16:39:53.450Z,100327.25
2023-02-05T16:42:26.006Z,100326.00
2023-02-05T16:45:02.982Z,100332.97
2023-02-05T16:47:29.308Z,100341.78
2023-02-05T16:49:55.619Z,100340.75
2023-02-05T16:52:35.310Z,100349.56
2023-02-05T16:55:05.593Z,100353.53
2023-02-05T16:57:32.629Z,100356.34
2023-02-05T17:00:17.231Z,100351.31
2023-02-05T17:02:44.606Z,100350.50
2023-02-05T17:05:23.822Z,100351.56
2023-02-05T17:07:54.302Z,100365.75
2023-02-05T17:10:21.032Z,100364.34
2023-02-05T17:12:57.095Z,100363.22
2023-02-05T17:15:27.893Z,100367.31
2023-02-05T17:18:05.180Z,100369.66
2023-02-05T17:20:33.255Z,100363.34
2023-02-05T17:22:59.816Z,100359.78
2023-02-05T17:25:26.451Z,100371.75
2023-02-05T17:27:52.814Z,100377.31
2023-02-05T17:30:19.144Z,100377.75
2023-02-05T17:32:46.912Z,100386.22
2023-02-05T17:35:13.688Z,100395.28
2023-02-05T17:37:40.013Z,100388.75
2023-02-05T17:40:06.808Z,100387.75
2023-02-05T17:42:33.178Z,100394.34
2023-02-05T17:44:59.589Z,100401.06
2023-02-05T17:47:25.922Z,100405.28
2023-02-05T17:49:52.281Z,100394.81
2023-02-05T17:52:18.624Z,100410.22
2023-02-05T17:54:46.450Z,100417.31
2023-02-05T17:57:16.910Z,100427.28
2023-02-05T17:59:44.789Z,100427.22
2023-02-05T18:02:11.556Z,100428.50
2023-02-05T18:04:37.964Z,100423.59
2023-02-05T18:07:04.292Z,100434.97
2023-02-05T18:09:30.610Z,100430.66
2023-02-05T18:11:56.945Z,100430.50
2023-02-05T18:14:23.594Z,100438.13
2023-02-05T18:16:49.965Z,100445.81
2023-02-05T18:19:16.306Z,100449.09
2023-02-05T18:21:42.666Z,100459.22
2023-02-05T18:24:09.039Z,100447.69
2023-02-05T18:26:35.437Z,100452.00
2023-02-05T18:29:01.764Z,100439.53
2023-02-05T18:31:28.242Z,100442.44
2023-02-05T18:33:54.666Z,100453.81
2023-02-05T18:36:21.072Z,100449.72
2023-02-05T18:38:47.393Z,100443.56
2023-02-05T18:41:14.683Z,100456.81
2023-02-05T18:43:41.008Z,100467.50
2023-02-05T18:46:11.117Z,100466.47
2023-02-05T18:48:37.790Z,100470.56
2023-02-05T18:51:04.943Z,100465.41
2023-02-05T18:53:31.980Z,100455.75
2023-02-05T18:56:02.073Z,100452.94
2023-02-05T18:58:28.398Z,100470.63
2023-02-05T19:00:54.732Z,100483.41
2023-02-05T19:03:21.065Z,100479.81
2023-02-05T19:05:47.378Z,100491.28
2023-02-05T19:08:13.686Z,100491.72
2023-02-05T19:10:39.996Z,100497.53
2023-02-05T19:13:06.366Z,100496.75
2023-02-05T19:15:32.798Z,100500.72
2023-02-05T19:17:59.106Z,100511.84
2023-02-05T19:20:25.557Z,100505.44
2023-02-05T19:22:52.357Z,100499.66
2023-02-05T19:25:18.735Z,100504.19
2023-02-05T19:27:45.076Z,100509.53
2023-02-05T19:30:14.140Z,100506.25
2023-02-05T19:32:40.460Z,100512.50
2023-02-05T19:35:06.907Z,100510.25
2023-02-05T19:37:33.261Z,100520.94
2023-02-05T19:39:59.582Z,100524.09
2023-02-05T19:42:27.217Z,100522.41
2023-02-05T19:44:53.563Z,100515.25
2023-02-05T19:47:21.075Z,100518.72
2023-02-05T19:49:47.492Z,100516.06
2023-02-05T19:52:13.834Z,100528.38
2023-02-05T19:54:40.148Z,100523.63
2023-02-05T19:57:06.483Z,100533.06
2023-02-05T19:59:33.365Z,100542.63
2023-02-05T20:01:59.692Z,100545.50
2023-02-05T20:04:26.128Z,100560.72
2023-02-05T20:06:55.919Z,100560.28
2023-02-05T20:09:22.227Z,100554.72
2023-02-05T20:11:48.904Z,100546.25
2023-02-05T20:14:15.555Z,100554.06
2023-02-05T20:16:42.235Z,100561.28
2023-02-05T20:19:09.996Z,100560.03
2023-02-05T20:21:36.378Z,100561.00
2023-02-05T20:24:04.486Z,100563.22
2023-02-05T20:26:31.012Z,100566.50
2023-02-05T20:29:16.120Z,100567.47
2023-02-05T20:31:43.418Z,100564.25
2023-02-05T20:34:10.819Z,100567.41
2023-02-05T20:36:37.153Z,100563.91
2023-02-05T20:39:04.434Z,100567.41
2023-02-05T20:41:30.746Z,100569.84
2023-02-05T20:43:57.214Z,100565.81
2023-02-05T20:46:23.822Z,100575.25
2023-02-05T20:48:50.206Z,100573.56
2023-02-05T20:51:17.043Z,100562.63
2023-02-05T20:53:43.477Z,100567.16
2023-02-05T20:56:10.570Z,100565.06
2023-02-05T20:58:36.890Z,100566.91
2023-02-05T21:01:10.261Z,100578.25
2023-02-05T21:03:36.757Z,100581.13
2023-02-05T21:06:03.083Z,100572.88
2023-02-05T21:08:29.447Z,100576.16
2023-02-05T21:10:55.778Z,100580.91
2023-02-05T21:13:22.105Z,100583.59
2023-02-05T21:15:54.870Z,100579.50
2023-02-05T21:18:21.245Z,100587.75
2023-02-05T21:20:47.650Z,100592.28
2023-02-05T21:23:13.977Z,100592.50
2023-02-05T21:25:40.285Z,100590.88
2023-02-05T21:28:06.676Z,100595.03
2023-02-05T21:30:33.135Z,100599.81
2023-02-05T21:32:59.570Z,100591.97
2023-02-05T21:35:25.886Z,100601.28
2023-02-05T21:37:52.264Z,100596.38
2023-02-05T21:40:18.668Z,100594.31
2023-02-05T21:42:45.011Z,100595.78
2023-02-05T21:45:11.332Z,100598.47
2023-02-05T21:47:37.658Z,100604.06
2023-02-05T21:50:04.118Z,100611.25
2023-02-05T21:52:30.453Z,100605.06
2023-02-05T21:54:56.789Z,100600.19
2023-02-05T21:57:24.309Z,100617.44
2023-02-05T21:59:51.060Z,100629.78
2023-02-05T22:02:17.432Z,100630.06
2023-02-05T22:04:43.847Z,100636.88
2023-02-05T22:07:10.168Z,100640.06
2023-02-05T22:09:36.475Z,100645.81
2023-02-05T22:12:03.805Z,100650.25
2023-02-05T22:14:30.583Z,100653.16
2023-02-05T22:16:57.089Z,100655.47
2023-02-05T22:19:24.247Z,100651.16
2023-02-05T22:21:50.554Z,100655.69
2023-02-05T22:24:17.589Z,100656.72
2023-02-05T22:26:44.034Z,100657.53
2023-02-05T22:29:14.235Z,100653.44
2023-02-05T22:31:40.972Z,100667.88
2023-02-05T22:34:07.349Z,100663.75
2023-02-05T22:36:33.744Z,100665.44
2023-02-05T22:39:00.130Z,100664.03
2023-02-05T22:41:27.474Z,100666.91
2023-02-05T22:43:54.359Z,100668.53
2023-02-05T22:46:21.336Z,100659.34
2023-02-05T22:48:48.046Z,100662.44
2023-02-05T22:51:15.264Z,100660.56
2023-02-05T22:53:41.664Z,100668.75
2023-02-05T22:56:08.608Z,100662.25
2023-02-05T22:58:34.960Z,100657.59
2023-02-05T23:01:10.819Z,100657.81
2023-02-05T23:03:37.383Z,100653.72
2023-02-05T23:06:13.766Z,100644.06
2023-02-05T23:08:40.094Z,100648.59
2023-02-05T23:11:07.024Z,100645.50
2023-02-05T23:13:33.370Z,100645.75
2023-02-05T23:18:25.887Z,100644.75
2023-02-05T23:20:52.188Z,100638.19
2023-02-05T23:23:19.232Z,100633.84
2023-02-05T23:25:49.705Z,100642.91
2023-02-05T23:28:16.128Z,100633.47
2023-02-05T23:30:42.784Z,100635.75
2023-02-05T23:33:09.197Z,100646.84
2023-02-05T23:35:35.810Z,100656.91
2023-02-05T23:38:02.391Z,100651.81
2023-02-05T23:40:28.705Z,100649.56
2023-02-05T23:42:55.136Z,100650.59
2023-02-05T23:45:21.451Z,100650.19
2023-02-05T23:47:47.759Z,100652.25
2023-02-05T23:50:17.001Z,100650.81
2023-02-05T23:52:43.326Z,100642.41
2023-02-05T23:55:09.646Z,100654.28
2023-02-05T23:57:35.954Z,100652.25
